Home > Products > Valid Products > TAF

000
FTUS45 KGJT 102326
TAFGJT
TAF
KGJT 102326Z 1100/1124 34005KT P6SM BKN250
     FM110200 09003KT P6SM SCT250
     FM111200 12004KT P6SM SCT250
     FM112000 35005KT P6SM BKN250=



000
FTUS45 KGJT 102326
TAFGJT
TAF
KGJT 102326Z 1100/1124 34005KT P6SM BKN250
     FM110200 09003KT P6SM SCT250
     FM111200 12004KT P6SM SCT250
     FM112000 35005KT P6SM BKN250=



000
FTUS45 KGJT 102326
TAFGJT
TAF
KGJT 102326Z 1100/1124 34005KT P6SM BKN250
     FM110200 09003KT P6SM SCT250
     FM111200 12004KT P6SM SCT250
     FM112000 35005KT P6SM BKN250=



000
FTUS45 KGJT 101722
TAFGJT
TAF
KGJT 101722Z 1018/1118 00000KT P6SM SCT250
     FM110200 09003KT P6SM FEW250
     FM111200 12004KT P6SM SCT250=



000
FTUS45 KGJT 101722
TAFGJT
TAF
KGJT 101722Z 1018/1118 00000KT P6SM SCT250
     FM110200 09003KT P6SM FEW250
     FM111200 12004KT P6SM SCT250=



000
FTUS45 KGJT 101120
TAFGJT
TAF
KGJT 101120Z 1012/1112 10005KT P6SM SKC
     FM101500 14004KT P6SM FEW250
     FM101900 00000KT P6SM SCT250
     FM110200 09003KT P6SM SKC=



000
FTUS45 KGJT 100520
TAFGJT
TAF
KGJT 100520Z 1006/1106 10005KT P6SM SKC
     FM101800 00000KT P6SM SKC=



000
FTUS45 KGJT 092323
TAFGJT
TAF
KGJT 092323Z 1000/1024 VRB03KT P6SM SKC=



000
FTUS45 KGJT 092323
TAFGJT
TAF
KGJT 092323Z 1000/1024 VRB03KT P6SM SKC=



000
FTUS45 KGJT 092323
TAFGJT
TAF
KGJT 092323Z 1000/1024 VRB03KT P6SM SKC=



000
FTUS45 KGJT 091720
TAFGJT
TAF
KGJT 091720Z 0918/1018 14005KT P6SM SKC
     FM092000 34004KT P6SM SKC
     FM100300 10005KT P6SM SKC=



000
FTUS45 KGJT 091720
TAFGJT
TAF
KGJT 091720Z 0918/1018 14005KT P6SM SKC
     FM092000 34004KT P6SM SKC
     FM100300 10005KT P6SM SKC=



000
FTUS45 KGJT 091720
TAFGJT
TAF
KGJT 091720Z 0918/1018 14005KT P6SM SKC
     FM092000 34004KT P6SM SKC
     FM100300 10005KT P6SM SKC=



000
FTUS45 KGJT 091120
TAFGJT
TAF
KGJT 091120Z 0912/1012 09005KT P6SM SKC
     FM091500 VRB03KT P6SM FEW250
     FM092100 35004KT P6SM FEW250
     FM100200 09005KT P6SM SKC=



000
FTUS45 KGJT 090829 AAB
TAFGJT
TAF AMD
KGJT 090829Z 0908/1006 VRB04KT P6SM FEW250
      TEMPO 0908/0912 5SM BR
     FM092100 VRB05KT P6SM SKC=



000
FTUS45 KGJT 090520
TAFGJT
TAF
KGJT 090520Z 0906/1006 VRB04KT P6SM FEW250
     FM092100 VRB05KT P6SM SKC=



000
FTUS45 KGJT 090520
TAFGJT
TAF
KGJT 090520Z 0906/1006 VRB04KT P6SM FEW250
     FM092100 VRB05KT P6SM SKC=



000
FTUS45 KGJT 090520
TAFGJT
TAF
KGJT 090520Z 0906/1006 VRB04KT P6SM FEW250
     FM092100 VRB05KT P6SM SKC=



000
FTUS45 KGJT 082320
TAFGJT
TAF
KGJT 082320Z 0900/0924 VRB03KT P6SM FEW250=



000
FTUS45 KGJT 081720
TAFGJT
TAF
KGJT 081720Z 0818/0918 32004KT P6SM SCT250
     FM090200 08004KT P6SM SCT250
     FM091100 13005KT P6SM FEW250=



000
FTUS45 KGJT 081125
TAFGJT
TAF
KGJT 081125Z 0812/0912 VRB03KT P6SM SCT250=



000
FTUS45 KGJT 081125
TAFGJT
TAF
KGJT 081125Z 0812/0912 VRB03KT P6SM SCT250=



000
FTUS45 KGJT 081125
TAFGJT
TAF
KGJT 081125Z 0812/0912 VRB03KT P6SM SCT250=



000
FTUS45 KGJT 080520
TAFGJT
TAF
KGJT 080520Z 0806/0906 09004KT P6SM FEW250
     FM081800 00000KT P6SM FEW250=



000
FTUS45 KGJT 080520
TAFGJT
TAF
KGJT 080520Z 0806/0906 09004KT P6SM FEW250
     FM081800 00000KT P6SM FEW250=



    US Dept of Commerce
    National Oceanic and Atmospheric Administration
    National Weather Service
    1325 East West Highway
    Silver Spring, MD 20910
    Page Author: NWS Internet Services Team
Disclaimer
Information Quality
Credits
Glossary
Privacy Policy
Freedom of Information Act (FOIA)
About Us
Career Opportunities